Boyne Mountain Airport


Codes: KBFA/
Name: Boyne Mountain Airport
City: Boyne Falls
Country: United States
Elevation: 719 ft.

Photos at Boyne Mountain Airport


   Photos courtesy of SpottingLog. You can add your own sightings and photos by signing up for a free trial today.



No photos found.

Weather at Boyne Mountain Airport


Time (UTC)DescriptionTempratureWindCloud coverageVisibilityPressureHumidity
21-Jun-2024 12:00Broken Clouds18°C2 mph, NE76%10000m1024hPa95%
21-Jun-2024 15:00Overcast Clouds21°C2 mph, SE89%10000m1023hPa84%
21-Jun-2024 18:00Light Rain25°C0 mph, W97%10000m1021hPa77%
21-Jun-2024 21:00Light Rain24°C7 mph, N93%10000m1020hPa77%
22-Jun-2024 00:00Overcast Clouds21°C9 mph, NE90%10000m1019hPa83%
22-Jun-2024 03:00Light Rain17°C7 mph, NE99%10000m1019hPa95%
22-Jun-2024 06:00Light Rain17°C4 mph, E100%10000m1017hPa98%
22-Jun-2024 09:00Moderate Rain17°C4 mph, E100%7547m1015hPa99%
22-Jun-2024 12:00Light Rain18°C2 mph, E100%1365m1014hPa99%
22-Jun-2024 15:00Heavy Intensity Rain18°C2 mph, N100%0m1012hPa99%
22-Jun-2024 18:00Moderate Rain18°C2 mph, NW100%166m1011hPa99%
22-Jun-2024 21:00Moderate Rain18°C2 mph, E100%183m1009hPa99%
23-Jun-2024 00:00Moderate Rain18°C9 mph, N100%0m1006hPa99%
23-Jun-2024 03:00Moderate Rain16°C9 mph, N100%0m1006hPa99%
23-Jun-2024 06:00Light Rain16°C11 mph, NE100%620m1005hPa99%
23-Jun-2024 09:00Overcast Clouds16°C7 mph, NE100%549m1005hPa99%
23-Jun-2024 12:00Overcast Clouds17°C7 mph, N100%8572m1007hPa99%
23-Jun-2024 15:00Overcast Clouds20°C7 mph, NE94%10000m1008hPa85%
23-Jun-2024 18:00Broken Clouds25°C4 mph, N76%10000m1007hPa60%
23-Jun-2024 21:00Light Rain22°C4 mph, NW79%10000m1008hPa86%
24-Jun-2024 00:00Light Rain21°C2 mph, W44%10000m1008hPa92%
24-Jun-2024 03:00Light Rain16°C2 mph, W13%10000m1009hPa96%
24-Jun-2024 06:00Light Rain14°C2 mph, SE12%10000m1009hPa97%
24-Jun-2024 09:00Scattered Clouds14°C2 mph, SW30%10000m1009hPa95%
24-Jun-2024 12:00Few Clouds17°C4 mph, S18%10000m1010hPa94%
24-Jun-2024 15:00Light Rain23°C7 mph, SW5%10000m1010hPa70%
24-Jun-2024 18:00Few Clouds25°C11 mph, W17%10000m1009hPa62%
24-Jun-2024 21:00Clear Sky27°C9 mph, W4%10000m1008hPa58%
25-Jun-2024 00:00Scattered Clouds24°C9 mph, SW31%10000m1007hPa78%
25-Jun-2024 03:00Light Rain21°C9 mph, S91%10000m1006hPa93%
25-Jun-2024 06:00Light Rain20°C9 mph, S97%10000m1006hPa95%
25-Jun-2024 09:00Light Rain21°C7 mph, SW100%10000m1005hPa96%
25-Jun-2024 12:00Moderate Rain20°C16 mph, SW100%9604m1004hPa98%
25-Jun-2024 15:00Heavy Intensity Rain20°C13 mph, SW100%6209m1003hPa98%
25-Jun-2024 18:00Light Rain19°C22 mph, SW100%10000m1000hPa89%
25-Jun-2024 21:00Moderate Rain19°C7 mph, SW100%10000m1001hPa97%
26-Jun-2024 00:00Overcast Clouds21°C18 mph, SW100%10000m999hPa86%
26-Jun-2024 03:00Overcast Clouds20°C16 mph, SW100%10000m999hPa87%
26-Jun-2024 06:00Overcast Clouds20°C16 mph, SW100%10000m1000hPa93%
26-Jun-2024 09:00Scattered Clouds15°C9 mph, W41%10000m1002hPa93%